sensor_id;sensor_type;location;lat;lon;timestamp;temperature;humidity
20839;DHT22;10580;51.092;6.828;2024-01-27T00:01:32;3.20;99.90
20839;DHT22;10580;51.092;6.828;2024-01-27T00:03:58;3.10;99.90
20839;DHT22;10580;51.092;6.828;2024-01-27T00:06:24;3.00;99.90
20839;DHT22;10580;51.092;6.828;2024-01-27T00:08:49;3.00;1.00
20839;DHT22;10580;51.092;6.828;2024-01-27T00:11:15;3.00;1.00
20839;DHT22;10580;51.092;6.828;2024-01-27T00:13:41;2.90;1.00
20839;DHT22;10580;51.092;6.828;2024-01-27T00:16:07;2.80;1.00
20839;DHT22;10580;51.092;6.828;2024-01-27T00:18:35;2.80;1.00
20839;DHT22;10580;51.092;6.828;2024-01-27T00:21:00;2.70;1.00
20839;DHT22;10580;51.092;6.828;2024-01-27T00:23:26;2.70;1.00
20839;DHT22;10580;51.092;6.828;2024-01-27T00:25:51;2.60;1.00
20839;DHT22;10580;51.092;6.828;2024-01-27T00:28:17;2.60;3.00
20839;DHT22;10580;51.092;6.828;2024-01-27T00:30:43;2.60;29.80
20839;DHT22;10580;51.092;6.828;2024-01-27T00:33:09;2.60;99.90
20839;DHT22;10580;51.092;6.828;2024-01-27T00:35:34;2.50;99.90
20839;DHT22;10580;51.092;6.828;2024-01-27T00:38:00;2.60;99.90
20839;DHT22;10580;51.092;6.828;2024-01-27T00:40:25;2.60;99.90
20839;DHT22;10580;51.092;6.828;2024-01-27T00:42:51;2.60;99.90
20839;DHT22;10580;51.092;6.828;2024-01-27T00:45:16;2.60;99.90
20839;DHT22;10580;51.092;6.828;2024-01-27T00:47:42;2.50;99.90
20839;DHT22;10580;51.092;6.828;2024-01-27T00:50:08;2.50;99.90
20839;DHT22;10580;51.092;6.828;2024-01-27T00:52:34;2.50;99.90
20839;DHT22;10580;51.092;6.828;2024-01-27T00:55:00;2.50;99.90
20839;DHT22;10580;51.092;6.828;2024-01-27T00:57:26;2.50;99.90
20839;DHT22;10580;51.092;6.828;2024-01-27T00:59:51;2.50;99.90
20839;DHT22;10580;51.092;6.828;2024-01-27T01:02:17;2.40;99.90
20839;DHT22;10580;51.092;6.828;2024-01-27T01:04:42;2.40;99.90
20839;DHT22;10580;51.092;6.828;2024-01-27T01:07:08;2.40;99.90
20839;DHT22;10580;51.092;6.828;2024-01-27T01:09:33;2.30;99.90
20839;DHT22;10580;51.092;6.828;2024-01-27T01:11:59;2.30;99.90
20839;DHT22;10580;51.092;6.828;2024-01-27T01:14:25;2.20;99.90
20839;DHT22;10580;51.092;6.828;2024-01-27T01:16:50;2.20;99.90
20839;DHT22;10580;51.092;6.828;2024-01-27T01:19:16;2.10;99.90
20839;DHT22;10580;51.092;6.828;2024-01-27T01:21:42;2.10;99.90
20839;DHT22;10580;51.092;6.828;2024-01-27T01:24:07;2.10;99.90
20839;DHT22;10580;51.092;6.828;2024-01-27T01:26:33;2.00;99.90
20839;DHT22;10580;51.092;6.828;2024-01-27T01:28:58;2.00;99.90
20839;DHT22;10580;51.092;6.828;2024-01-27T01:31:24;2.00;1.00
20839;DHT22;10580;51.092;6.828;2024-01-27T01:33:50;1.90;1.00
20839;DHT22;10580;51.092;6.828;2024-01-27T01:36:15;1.90;1.00
20839;DHT22;10580;51.092;6.828;2024-01-27T01:38:41;1.80;1.00
20839;DHT22;10580;51.092;6.828;2024-01-27T01:41:06;1.80;1.00
20839;DHT22;10580;51.092;6.828;2024-01-27T01:43:32;1.70;1.00
20839;DHT22;10580;51.092;6.828;2024-01-27T01:45:57;1.70;1.00
20839;DHT22;10580;51.092;6.828;2024-01-27T01:48:23;1.70;1.00
20839;DHT22;10580;51.092;6.828;2024-01-27T01:50:49;1.70;1.00
20839;DHT22;10580;51.092;6.828;2024-01-27T01:53:15;1.60;1.00
20839;DHT22;10580;51.092;6.828;2024-01-27T01:55:41;1.60;1.00
20839;DHT22;10580;51.092;6.828;2024-01-27T01:58:06;1.50;1.00
20839;DHT22;10580;51.092;6.828;2024-01-27T02:00:32;1.50;1.00
20839;DHT22;10580;51.092;6.828;2024-01-27T02:02:58;1.40;1.00
20839;DHT22;10580;51.092;6.828;2024-01-27T02:05:24;1.40;1.00
20839;DHT22;10580;51.092;6.828;2024-01-27T02:07:50;1.40;1.00
20839;DHT22;10580;51.092;6.828;2024-01-27T02:10:17;1.40;1.00
20839;DHT22;10580;51.092;6.828;2024-01-27T02:12:43;1.40;1.00
20839;DHT22;10580;51.092;6.828;2024-01-27T02:15:11;1.30;1.00
20839;DHT22;10580;51.092;6.828;2024-01-27T02:17:40;1.30;1.00
20839;DHT22;10580;51.092;6.828;2024-01-27T02:20:06;1.30;1.00
20839;DHT22;10580;51.092;6.828;2024-01-27T02:22:33;1.30;1.00
20839;DHT22;10580;51.092;6.828;2024-01-27T02:24:59;1.30;1.00
20839;DHT22;10580;51.092;6.828;2024-01-27T02:27:25;1.30;1.00
20839;DHT22;10580;51.092;6.828;2024-01-27T02:29:50;1.20;1.00
20839;DHT22;10580;51.092;6.828;2024-01-27T02:32:16;1.20;1.00
20839;DHT22;10580;51.092;6.828;2024-01-27T02:34:41;1.20;1.00
20839;DHT22;10580;51.092;6.828;2024-01-27T02:37:07;1.20;1.00
20839;DHT22;10580;51.092;6.828;2024-01-27T02:39:33;1.20;1.00
20839;DHT22;10580;51.092;6.828;2024-01-27T02:41:58;1.10;6.70
20839;DHT22;10580;51.092;6.828;2024-01-27T02:44:24;1.10;8.00
20839;DHT22;10580;51.092;6.828;2024-01-27T02:46:49;1.10;5.70
20839;DHT22;10580;51.092;6.828;2024-01-27T02:49:15;1.00;8.40
20839;DHT22;10580;51.092;6.828;2024-01-27T02:51:40;1.00;19.20
20839;DHT22;10580;51.092;6.828;2024-01-27T02:54:06;1.00;21.90
20839;DHT22;10580;51.092;6.828;2024-01-27T02:56:31;0.90;38.10
20839;DHT22;10580;51.092;6.828;2024-01-27T02:58:57;0.90;76.40
20839;DHT22;10580;51.092;6.828;2024-01-27T03:01:22;0.90;99.30
20839;DHT22;10580;51.092;6.828;2024-01-27T03:03:48;0.90;99.90
20839;DHT22;10580;51.092;6.828;2024-01-27T03:06:13;0.90;99.90
20839;DHT22;10580;51.092;6.828;2024-01-27T03:08:39;0.80;99.90
20839;DHT22;10580;51.092;6.828;2024-01-27T03:11:04;0.80;99.90
20839;DHT22;10580;51.092;6.828;2024-01-27T03:13:30;0.80;99.90
20839;DHT22;10580;51.092;6.828;2024-01-27T03:15:56;0.80;99.90
20839;DHT22;10580;51.092;6.828;2024-01-27T03:18:21;0.80;99.90
20839;DHT22;10580;51.092;6.828;2024-01-27T03:20:48;0.70;99.90
20839;DHT22;10580;51.092;6.828;2024-01-27T03:23:13;0.70;99.90
20839;DHT22;10580;51.092;6.828;2024-01-27T03:25:39;0.70;99.90
20839;DHT22;10580;51.092;6.828;2024-01-27T03:28:04;0.70;99.90
20839;DHT22;10580;51.092;6.828;2024-01-27T03:30:30;0.60;99.90
20839;DHT22;10580;51.092;6.828;2024-01-27T03:32:56;0.60;99.90
20839;DHT22;10580;51.092;6.828;2024-01-27T03:35:21;0.60;99.90
20839;DHT22;10580;51.092;6.828;2024-01-27T03:37:47;0.60;99.90
20839;DHT22;10580;51.092;6.828;2024-01-27T03:40:13;0.50;99.90
20839;DHT22;10580;51.092;6.828;2024-01-27T03:42:38;0.50;99.90
20839;DHT22;10580;51.092;6.828;2024-01-27T03:45:04;0.50;99.90
20839;DHT22;10580;51.092;6.828;2024-01-27T03:47:30;0.50;99.90
20839;DHT22;10580;51.092;6.828;2024-01-27T03:49:55;0.50;99.90
20839;DHT22;10580;51.092;6.828;2024-01-27T03:52:21;0.50;99.90
20839;DHT22;10580;51.092;6.828;2024-01-27T03:54:46;0.50;99.90
20839;DHT22;10580;51.092;6.828;2024-01-27T03:57:12;0.50;1.00
20839;DHT22;10580;51.092;6.828;2024-01-27T03:59:40;0.50;1.00
20839;DHT22;10580;51.092;6.828;2024-01-27T04:02:06;0.50;1.00
20839;DHT22;10580;51.092;6.828;2024-01-27T04:04:32;0.50;1.00
20839;DHT22;10580;51.092;6.828;2024-01-27T04:06:57;0.50;1.00
20839;DHT22;10580;51.092;6.828;2024-01-27T04:09:23;0.40;1.00
20839;DHT22;10580;51.092;6.828;2024-01-27T04:11:49;0.40;1.00
20839;DHT22;10580;51.092;6.828;2024-01-27T04:14:15;0.40;1.00
20839;DHT22;10580;51.092;6.828;2024-01-27T04:16:40;0.40;1.00
20839;DHT22;10580;51.092;6.828;2024-01-27T04:19:06;0.40;1.00
20839;DHT22;10580;51.092;6.828;2024-01-27T04:21:31;0.40;1.00
20839;DHT22;10580;51.092;6.828;2024-01-27T04:23:57;0.40;1.00
20839;DHT22;10580;51.092;6.828;2024-01-27T04:26:22;0.40;1.00
20839;DHT22;10580;51.092;6.828;2024-01-27T04:28:48;0.40;1.00
20839;DHT22;10580;51.092;6.828;2024-01-27T04:31:13;0.40;1.00
20839;DHT22;10580;51.092;6.828;2024-01-27T04:33:39;0.40;1.00
20839;DHT22;10580;51.092;6.828;2024-01-27T04:36:05;0.40;1.00
20839;DHT22;10580;51.092;6.828;2024-01-27T04:38:32;0.40;1.00
20839;DHT22;10580;51.092;6.828;2024-01-27T04:40:58;0.40;1.00
20839;DHT22;10580;51.092;6.828;2024-01-27T04:43:23;0.40;1.00
20839;DHT22;10580;51.092;6.828;2024-01-27T04:45:49;0.40;1.00
20839;DHT22;10580;51.092;6.828;2024-01-27T04:48:15;0.40;1.00
20839;DHT22;10580;51.092;6.828;2024-01-27T04:50:41;0.40;1.00
20839;DHT22;10580;51.092;6.828;2024-01-27T04:53:06;0.40;1.00
20839;DHT22;10580;51.092;6.828;2024-01-27T04:55:32;0.30;1.00
20839;DHT22;10580;51.092;6.828;2024-01-27T04:57:57;0.30;1.00
20839;DHT22;10580;51.092;6.828;2024-01-27T05:00:26;0.40;1.00
20839;DHT22;10580;51.092;6.828;2024-01-27T05:02:53;0.30;1.00
20839;DHT22;10580;51.092;6.828;2024-01-27T05:05:19;0.30;1.00
20839;DHT22;10580;51.092;6.828;2024-01-27T05:07:44;0.30;1.00
20839;DHT22;10580;51.092;6.828;2024-01-27T05:10:11;0.30;1.00
20839;DHT22;10580;51.092;6.828;2024-01-27T05:12:37;0.30;1.00
20839;DHT22;10580;51.092;6.828;2024-01-27T05:15:03;0.30;1.00
20839;DHT22;10580;51.092;6.828;2024-01-27T05:17:28;0.30;1.00
20839;DHT22;10580;51.092;6.828;2024-01-27T05:19:54;0.30;1.00
20839;DHT22;10580;51.092;6.828;2024-01-27T05:22:20;0.30;1.00
20839;DHT22;10580;51.092;6.828;2024-01-27T05:24:45;0.20;1.00
20839;DHT22;10580;51.092;6.828;2024-01-27T05:27:11;0.20;1.00
20839;DHT22;10580;51.092;6.828;2024-01-27T05:29:37;0.20;1.00
20839;DHT22;10580;51.092;6.828;2024-01-27T05:32:03;0.30;1.00
20839;DHT22;10580;51.092;6.828;2024-01-27T05:34:29;0.30;1.00
20839;DHT22;10580;51.092;6.828;2024-01-27T05:36:55;0.40;1.00
20839;DHT22;10580;51.092;6.828;2024-01-27T05:39:21;0.50;1.00
20839;DHT22;10580;51.092;6.828;2024-01-27T05:41:46;0.50;1.00
20839;DHT22;10580;51.092;6.828;2024-01-27T05:44:12;0.50;1.00
20839;DHT22;10580;51.092;6.828;2024-01-27T05:46:37;0.50;1.00
20839;DHT22;10580;51.092;6.828;2024-01-27T05:49:03;0.50;1.00
20839;DHT22;10580;51.092;6.828;2024-01-27T05:51:29;0.40;1.00
20839;DHT22;10580;51.092;6.828;2024-01-27T05:53:55;0.40;1.00
20839;DHT22;10580;51.092;6.828;2024-01-27T05:56:21;0.40;1.00
20839;DHT22;10580;51.092;6.828;2024-01-27T05:58:47;0.40;1.00
20839;DHT22;10580;51.092;6.828;2024-01-27T06:01:13;0.40;1.00
20839;DHT22;10580;51.092;6.828;2024-01-27T06:03:41;0.40;1.00
20839;DHT22;10580;51.092;6.828;2024-01-27T06:06:07;0.30;1.00
20839;DHT22;10580;51.092;6.828;2024-01-27T06:08:33;0.30;1.00
20839;DHT22;10580;51.092;6.828;2024-01-27T06:10:58;0.40;1.00
20839;DHT22;10580;51.092;6.828;2024-01-27T06:13:24;0.40;1.00
20839;DHT22;10580;51.092;6.828;2024-01-27T06:15:50;0.40;1.00
20839;DHT22;10580;51.092;6.828;2024-01-27T06:18:16;0.50;28.60
20839;DHT22;10580;51.092;6.828;2024-01-27T06:20:41;0.50;50.90
20839;DHT22;10580;51.092;6.828;2024-01-27T06:23:08;0.50;37.70
20839;DHT22;10580;51.092;6.828;2024-01-27T06:25:34;0.40;41.70
20839;DHT22;10580;51.092;6.828;2024-01-27T06:28:00;0.30;5.30
20839;DHT22;10580;51.092;6.828;2024-01-27T06:30:25;0.40;1.00
20839;DHT22;10580;51.092;6.828;2024-01-27T06:32:51;0.30;1.00
20839;DHT22;10580;51.092;6.828;2024-01-27T06:35:16;0.30;1.00
20839;DHT22;10580;51.092;6.828;2024-01-27T06:37:42;0.30;1.00
20839;DHT22;10580;51.092;6.828;2024-01-27T06:40:08;0.20;1.00
20839;DHT22;10580;51.092;6.828;2024-01-27T06:42:37;0.30;1.00
20839;DHT22;10580;51.092;6.828;2024-01-27T06:45:02;0.30;1.00
20839;DHT22;10580;51.092;6.828;2024-01-27T06:47:29;0.30;21.90
20839;DHT22;10580;51.092;6.828;2024-01-27T06:49:54;0.40;26.00
20839;DHT22;10580;51.092;6.828;2024-01-27T06:52:20;0.30;86.50
20839;DHT22;10580;51.092;6.828;2024-01-27T06:54:46;0.30;99.90
20839;DHT22;10580;51.092;6.828;2024-01-27T06:57:21;0.40;99.90
20839;DHT22;10580;51.092;6.828;2024-01-27T06:59:51;0.40;99.90
20839;DHT22;10580;51.092;6.828;2024-01-27T07:02:25;0.40;99.90
20839;DHT22;10580;51.092;6.828;2024-01-27T07:04:52;0.40;99.90
20839;DHT22;10580;51.092;6.828;2024-01-27T07:07:25;0.40;99.90
20839;DHT22;10580;51.092;6.828;2024-01-27T07:09:51;0.40;99.90
20839;DHT22;10580;51.092;6.828;2024-01-27T07:12:17;0.40;99.90
20839;DHT22;10580;51.092;6.828;2024-01-27T07:14:42;0.50;99.90
20839;DHT22;10580;51.092;6.828;2024-01-27T07:17:08;0.50;99.90
20839;DHT22;10580;51.092;6.828;2024-01-27T07:19:33;0.60;99.90
20839;DHT22;10580;51.092;6.828;2024-01-27T07:21:59;0.60;99.90
20839;DHT22;10580;51.092;6.828;2024-01-27T07:24:29;0.60;99.90
20839;DHT22;10580;51.092;6.828;2024-01-27T07:26:55;0.60;99.90
20839;DHT22;10580;51.092;6.828;2024-01-27T07:29:20;0.70;99.90
20839;DHT22;10580;51.092;6.828;2024-01-27T07:31:46;0.70;99.90
20839;DHT22;10580;51.092;6.828;2024-01-27T07:34:12;0.70;99.90
20839;DHT22;10580;51.092;6.828;2024-01-27T07:36:37;0.70;99.90
20839;DHT22;10580;51.092;6.828;2024-01-27T07:39:03;0.80;99.90
20839;DHT22;10580;51.092;6.828;2024-01-27T07:41:30;0.80;99.90
20839;DHT22;10580;51.092;6.828;2024-01-27T07:43:56;0.80;99.90
20839;DHT22;10580;51.092;6.828;2024-01-27T07:46:21;0.90;99.90
20839;DHT22;10580;51.092;6.828;2024-01-27T07:48:48;0.90;99.90
20839;DHT22;10580;51.092;6.828;2024-01-27T07:51:15;0.90;99.90
20839;DHT22;10580;51.092;6.828;2024-01-27T07:53:40;1.00;99.90
20839;DHT22;10580;51.092;6.828;2024-01-27T07:56:07;1.00;99.90
20839;DHT22;10580;51.092;6.828;2024-01-27T07:58:33;1.10;99.90
20839;DHT22;10580;51.092;6.828;2024-01-27T08:00:59;1.20;99.90
20839;DHT22;10580;51.092;6.828;2024-01-27T08:03:24;1.30;99.90
20839;DHT22;10580;51.092;6.828;2024-01-27T08:05:50;1.50;99.90
20839;DHT22;10580;51.092;6.828;2024-01-27T08:08:15;1.60;99.90
20839;DHT22;10580;51.092;6.828;2024-01-27T08:10:41;1.60;30.10
20839;DHT22;10580;51.092;6.828;2024-01-27T08:13:06;1.70;1.00
20839;DHT22;10580;51.092;6.828;2024-01-27T08:15:33;1.70;1.00
20839;DHT22;10580;51.092;6.828;2024-01-27T08:17:58;1.70;1.00
20839;DHT22;10580;51.092;6.828;2024-01-27T08:20:24;1.70;1.00
20839;DHT22;10580;51.092;6.828;2024-01-27T08:22:49;1.80;1.00
20839;DHT22;10580;51.092;6.828;2024-01-27T08:25:18;1.80;1.00
20839;DHT22;10580;51.092;6.828;2024-01-27T08:27:44;2.00;1.00
20839;DHT22;10580;51.092;6.828;2024-01-27T08:30:10;2.10;1.00
20839;DHT22;10580;51.092;6.828;2024-01-27T08:32:36;2.30;1.00
20839;DHT22;10580;51.092;6.828;2024-01-27T08:35:01;2.50;99.90
20839;DHT22;10580;51.092;6.828;2024-01-27T08:37:27;2.80;99.90
20839;DHT22;10580;51.092;6.828;2024-01-27T08:39:53;3.10;99.90
20839;DHT22;10580;51.092;6.828;2024-01-27T08:42:18;3.60;99.90
20839;DHT22;10580;51.092;6.828;2024-01-27T08:44:44;4.10;1.00
20839;DHT22;10580;51.092;6.828;2024-01-27T08:47:10;4.60;99.90
20839;DHT22;10580;51.092;6.828;2024-01-27T08:49:35;4.80;1.00
20839;DHT22;10580;51.092;6.828;2024-01-27T08:52:01;5.30;1.00
20839;DHT22;10580;51.092;6.828;2024-01-27T08:54:26;6.00;99.90
20839;DHT22;10580;51.092;6.828;2024-01-27T08:56:52;7.30;1.00
20839;DHT22;10580;51.092;6.828;2024-01-27T08:59:17;8.40;99.90
20839;DHT22;10580;51.092;6.828;2024-01-27T09:01:43;9.50;1.00
20839;DHT22;10580;51.092;6.828;2024-01-27T09:04:09;10.60;99.90
20839;DHT22;10580;51.092;6.828;2024-01-27T09:06:34;11.00;1.00
20839;DHT22;10580;51.092;6.828;2024-01-27T09:09:00;10.50;1.00
20839;DHT22;10580;51.092;6.828;2024-01-27T09:11:26;10.20;1.00
20839;DHT22;10580;51.092;6.828;2024-01-27T09:13:55;10.00;1.00
20839;DHT22;10580;51.092;6.828;2024-01-27T09:16:21;9.70;1.00
20839;DHT22;10580;51.092;6.828;2024-01-27T09:18:47;9.10;1.00
20839;DHT22;10580;51.092;6.828;2024-01-27T09:21:14;8.80;1.00
20839;DHT22;10580;51.092;6.828;2024-01-27T09:23:48;8.90;1.00
20839;DHT22;10580;51.092;6.828;2024-01-27T09:26:14;9.20;1.00
20839;DHT22;10580;51.092;6.828;2024-01-27T09:28:40;9.40;1.00
20839;DHT22;10580;51.092;6.828;2024-01-27T09:31:10;9.60;1.00
20839;DHT22;10580;51.092;6.828;2024-01-27T09:33:36;9.50;1.00
20839;DHT22;10580;51.092;6.828;2024-01-27T09:36:01;9.60;1.00
20839;DHT22;10580;51.092;6.828;2024-01-27T09:38:28;10.40;1.00
20839;DHT22;10580;51.092;6.828;2024-01-27T09:40:54;11.30;1.00
20839;DHT22;10580;51.092;6.828;2024-01-27T09:43:19;11.90;1.00
20839;DHT22;10580;51.092;6.828;2024-01-27T09:45:46;11.90;1.00
20839;DHT22;10580;51.092;6.828;2024-01-27T09:48:12;12.30;1.00
20839;DHT22;10580;51.092;6.828;2024-01-27T09:50:43;12.20;1.00
20839;DHT22;10580;51.092;6.828;2024-01-27T09:53:09;12.50;1.00
20839;DHT22;10580;51.092;6.828;2024-01-27T09:55:35;12.10;1.00
20839;DHT22;10580;51.092;6.828;2024-01-27T09:58:02;11.80;1.00
20839;DHT22;10580;51.092;6.828;2024-01-27T10:00:27;11.40;1.00
20839;DHT22;10580;51.092;6.828;2024-01-27T10:02:54;11.20;1.00
20839;DHT22;10580;51.092;6.828;2024-01-27T10:05:20;10.70;1.00
20839;DHT22;10580;51.092;6.828;2024-01-27T10:07:46;10.40;1.00
20839;DHT22;10580;51.092;6.828;2024-01-27T10:10:12;9.90;1.00
20839;DHT22;10580;51.092;6.828;2024-01-27T10:12:40;9.40;1.00
20839;DHT22;10580;51.092;6.828;2024-01-27T10:15:21;9.00;1.00
20839;DHT22;10580;51.092;6.828;2024-01-27T10:17:47;8.80;1.00
20839;DHT22;10580;51.092;6.828;2024-01-27T10:20:13;8.60;1.00
20839;DHT22;10580;51.092;6.828;2024-01-27T10:22:42;9.00;1.00
20839;DHT22;10580;51.092;6.828;2024-01-27T10:25:08;9.10;1.00
20839;DHT22;10580;51.092;6.828;2024-01-27T10:27:34;9.40;1.00
20839;DHT22;10580;51.092;6.828;2024-01-27T10:30:00;9.90;1.00
20839;DHT22;10580;51.092;6.828;2024-01-27T10:32:26;10.40;1.00
20839;DHT22;10580;51.092;6.828;2024-01-27T10:35:03;10.50;1.00
20839;DHT22;10580;51.092;6.828;2024-01-27T10:37:29;11.10;1.00
20839;DHT22;10580;51.092;6.828;2024-01-27T10:40:02;11.10;1.00
20839;DHT22;10580;51.092;6.828;2024-01-27T10:42:29;11.70;1.00
20839;DHT22;10580;51.092;6.828;2024-01-27T10:45:00;12.00;1.00
20839;DHT22;10580;51.092;6.828;2024-01-27T10:47:30;12.40;1.00
20839;DHT22;10580;51.092;6.828;2024-01-27T10:49:57;12.30;1.00
20839;DHT22;10580;51.092;6.828;2024-01-27T10:52:24;12.00;1.00
20839;DHT22;10580;51.092;6.828;2024-01-27T10:55:01;12.40;1.00
20839;DHT22;10580;51.092;6.828;2024-01-27T10:57:30;12.60;1.00
20839;DHT22;10580;51.092;6.828;2024-01-27T10:59:57;12.40;1.00
20839;DHT22;10580;51.092;6.828;2024-01-27T11:02:23;12.20;1.00
20839;DHT22;10580;51.092;6.828;2024-01-27T11:04:49;12.20;1.00
20839;DHT22;10580;51.092;6.828;2024-01-27T11:07:17;11.80;1.00
20839;DHT22;10580;51.092;6.828;2024-01-27T11:09:44;11.60;1.00
20839;DHT22;10580;51.092;6.828;2024-01-27T11:12:10;11.80;1.00
20839;DHT22;10580;51.092;6.828;2024-01-27T11:14:36;11.70;1.00
20839;DHT22;10580;51.092;6.828;2024-01-27T11:17:02;11.50;1.00
20839;DHT22;10580;51.092;6.828;2024-01-27T11:19:28;11.50;1.00
20839;DHT22;10580;51.092;6.828;2024-01-27T11:22:01;11.80;1.00
20839;DHT22;10580;51.092;6.828;2024-01-27T11:24:27;12.10;1.00
20839;DHT22;10580;51.092;6.828;2024-01-27T11:27:03;11.80;1.00
20839;DHT22;10580;51.092;6.828;2024-01-27T11:29:29;11.30;1.00
20839;DHT22;10580;51.092;6.828;2024-01-27T11:31:57;11.00;1.00
20839;DHT22;10580;51.092;6.828;2024-01-27T11:34:23;10.60;1.00
20839;DHT22;10580;51.092;6.828;2024-01-27T11:36:49;10.30;1.00
20839;DHT22;10580;51.092;6.828;2024-01-27T11:39:28;10.00;1.00
20839;DHT22;10580;51.092;6.828;2024-01-27T11:42:11;9.80;1.00
20839;DHT22;10580;51.092;6.828;2024-01-27T11:44:39;9.40;1.00
20839;DHT22;10580;51.092;6.828;2024-01-27T11:47:05;9.30;1.00
20839;DHT22;10580;51.092;6.828;2024-01-27T11:49:33;9.40;1.00
20839;DHT22;10580;51.092;6.828;2024-01-27T11:51:58;9.30;1.00
20839;DHT22;10580;51.092;6.828;2024-01-27T11:54:24;9.30;1.00
20839;DHT22;10580;51.092;6.828;2024-01-27T11:56:50;9.40;1.00
20839;DHT22;10580;51.092;6.828;2024-01-27T11:59:16;9.60;1.00
20839;DHT22;10580;51.092;6.828;2024-01-27T12:01:41;9.90;1.00
20839;DHT22;10580;51.092;6.828;2024-01-27T12:04:07;10.00;1.00
20839;DHT22;10580;51.092;6.828;2024-01-27T12:06:34;10.00;1.00
20839;DHT22;10580;51.092;6.828;2024-01-27T12:09:00;9.80;1.00
20839;DHT22;10580;51.092;6.828;2024-01-27T12:11:26;9.80;1.00
20839;DHT22;10580;51.092;6.828;2024-01-27T12:13:52;10.20;1.00
20839;DHT22;10580;51.092;6.828;2024-01-27T12:16:18;10.20;1.00
20839;DHT22;10580;51.092;6.828;2024-01-27T12:18:44;10.30;1.00
20839;DHT22;10580;51.092;6.828;2024-01-27T12:21:10;10.30;1.00
20839;DHT22;10580;51.092;6.828;2024-01-27T12:23:36;10.50;1.00
20839;DHT22;10580;51.092;6.828;2024-01-27T12:26:01;10.40;1.00
20839;DHT22;10580;51.092;6.828;2024-01-27T12:28:27;10.20;1.00
20839;DHT22;10580;51.092;6.828;2024-01-27T12:30:53;10.00;1.00
20839;DHT22;10580;51.092;6.828;2024-01-27T12:33:19;9.80;1.00
20839;DHT22;10580;51.092;6.828;2024-01-27T12:35:50;9.80;1.00
20839;DHT22;10580;51.092;6.828;2024-01-27T12:38:17;9.70;1.00
20839;DHT22;10580;51.092;6.828;2024-01-27T12:40:43;9.90;1.00
20839;DHT22;10580;51.092;6.828;2024-01-27T12:43:08;9.80;1.00
20839;DHT22;10580;51.092;6.828;2024-01-27T12:45:34;9.70;1.00
20839;DHT22;10580;51.092;6.828;2024-01-27T12:48:00;9.70;1.00
20839;DHT22;10580;51.092;6.828;2024-01-27T12:50:27;9.40;1.00
20839;DHT22;10580;51.092;6.828;2024-01-27T12:52:53;9.20;1.00
20839;DHT22;10580;51.092;6.828;2024-01-27T12:55:19;8.90;1.00
20839;DHT22;10580;51.092;6.828;2024-01-27T12:57:46;9.00;1.00
20839;DHT22;10580;51.092;6.828;2024-01-27T13:00:12;9.00;1.00
20839;DHT22;10580;51.092;6.828;2024-01-27T13:02:39;9.10;1.00
20839;DHT22;10580;51.092;6.828;2024-01-27T13:05:05;9.30;1.00
20839;DHT22;10580;51.092;6.828;2024-01-27T13:07:31;9.40;1.00
20839;DHT22;10580;51.092;6.828;2024-01-27T13:09:57;9.40;1.00
20839;DHT22;10580;51.092;6.828;2024-01-27T13:12:22;9.30;1.00
20839;DHT22;10580;51.092;6.828;2024-01-27T13:14:48;9.20;1.00
20839;DHT22;10580;51.092;6.828;2024-01-27T13:17:14;8.90;1.00
20839;DHT22;10580;51.092;6.828;2024-01-27T13:19:40;8.80;1.00
20839;DHT22;10580;51.092;6.828;2024-01-27T13:22:06;8.80;1.00
20839;DHT22;10580;51.092;6.828;2024-01-27T13:24:33;8.70;1.00
20839;DHT22;10580;51.092;6.828;2024-01-27T13:26:58;8.50;1.00
20839;DHT22;10580;51.092;6.828;2024-01-27T13:29:24;8.50;1.00
20839;DHT22;10580;51.092;6.828;2024-01-27T13:31:50;8.50;1.00
20839;DHT22;10580;51.092;6.828;2024-01-27T13:34:15;8.40;1.00
20839;DHT22;10580;51.092;6.828;2024-01-27T13:36:41;8.40;1.00
20839;DHT22;10580;51.092;6.828;2024-01-27T13:39:06;8.30;1.00
20839;DHT22;10580;51.092;6.828;2024-01-27T13:41:32;8.30;1.00
20839;DHT22;10580;51.092;6.828;2024-01-27T13:43:58;8.20;1.00
20839;DHT22;10580;51.092;6.828;2024-01-27T13:46:23;8.20;1.00
20839;DHT22;10580;51.092;6.828;2024-01-27T13:48:49;8.30;1.00
20839;DHT22;10580;51.092;6.828;2024-01-27T13:51:14;8.40;1.00
20839;DHT22;10580;51.092;6.828;2024-01-27T13:53:40;9.10;1.00
20839;DHT22;10580;51.092;6.828;2024-01-27T13:56:06;9.80;1.00
20839;DHT22;10580;51.092;6.828;2024-01-27T13:58:32;10.40;1.00
20839;DHT22;10580;51.092;6.828;2024-01-27T14:00:58;10.90;1.00
20839;DHT22;10580;51.092;6.828;2024-01-27T14:03:23;11.40;1.00
20839;DHT22;10580;51.092;6.828;2024-01-27T14:05:49;11.50;1.00
20839;DHT22;10580;51.092;6.828;2024-01-27T14:08:15;11.00;1.00
20839;DHT22;10580;51.092;6.828;2024-01-27T14:10:43;10.40;1.00
20839;DHT22;10580;51.092;6.828;2024-01-27T14:13:09;9.90;1.00
20839;DHT22;10580;51.092;6.828;2024-01-27T14:15:36;9.80;1.00
20839;DHT22;10580;51.092;6.828;2024-01-27T14:18:02;9.60;1.00
20839;DHT22;10580;51.092;6.828;2024-01-27T14:20:29;9.50;1.00
20839;DHT22;10580;51.092;6.828;2024-01-27T14:22:55;9.50;1.00
20839;DHT22;10580;51.092;6.828;2024-01-27T14:25:20;9.70;1.00
20839;DHT22;10580;51.092;6.828;2024-01-27T14:27:46;10.00;1.00
20839;DHT22;10580;51.092;6.828;2024-01-27T14:30:12;10.60;1.00
20839;DHT22;10580;51.092;6.828;2024-01-27T14:32:38;10.70;1.00
20839;DHT22;10580;51.092;6.828;2024-01-27T14:35:04;11.20;1.00
20839;DHT22;10580;51.092;6.828;2024-01-27T14:37:32;11.30;1.00
20839;DHT22;10580;51.092;6.828;2024-01-27T14:39:57;11.20;1.00
20839;DHT22;10580;51.092;6.828;2024-01-27T14:42:23;11.30;1.00
20839;DHT22;10580;51.092;6.828;2024-01-27T14:44:48;11.20;1.00
20839;DHT22;10580;51.092;6.828;2024-01-27T14:47:20;10.90;1.00
20839;DHT22;10580;51.092;6.828;2024-01-27T14:49:46;11.10;1.00
20839;DHT22;10580;51.092;6.828;2024-01-27T14:52:12;11.10;1.00
20839;DHT22;10580;51.092;6.828;2024-01-27T14:54:38;11.30;1.00
20839;DHT22;10580;51.092;6.828;2024-01-27T14:57:05;11.30;1.00
20839;DHT22;10580;51.092;6.828;2024-01-27T14:59:31;11.20;1.00
20839;DHT22;10580;51.092;6.828;2024-01-27T15:01:57;10.70;1.00
20839;DHT22;10580;51.092;6.828;2024-01-27T15:04:25;10.30;1.00
20839;DHT22;10580;51.092;6.828;2024-01-27T15:06:55;10.00;1.00
20839;DHT22;10580;51.092;6.828;2024-01-27T15:09:22;9.80;1.00
20839;DHT22;10580;51.092;6.828;2024-01-27T15:11:51;9.50;1.00
20839;DHT22;10580;51.092;6.828;2024-01-27T15:14:17;9.30;1.00
20839;DHT22;10580;51.092;6.828;2024-01-27T15:16:43;9.00;1.00
20839;DHT22;10580;51.092;6.828;2024-01-27T15:19:09;8.80;1.00
20839;DHT22;10580;51.092;6.828;2024-01-27T15:21:35;8.60;1.00
20839;DHT22;10580;51.092;6.828;2024-01-27T15:24:01;8.40;1.00
20839;DHT22;10580;51.092;6.828;2024-01-27T15:26:26;8.30;1.00
20839;DHT22;10580;51.092;6.828;2024-01-27T15:28:52;8.20;1.00
20839;DHT22;10580;51.092;6.828;2024-01-27T15:31:17;8.10;1.00
20839;DHT22;10580;51.092;6.828;2024-01-27T15:33:43;7.90;1.00
20839;DHT22;10580;51.092;6.828;2024-01-27T15:36:08;7.80;1.00
20839;DHT22;10580;51.092;6.828;2024-01-27T15:38:34;7.70;1.00
20839;DHT22;10580;51.092;6.828;2024-01-27T15:41:00;7.60;1.00
20839;DHT22;10580;51.092;6.828;2024-01-27T15:43:31;7.50;1.00
20839;DHT22;10580;51.092;6.828;2024-01-27T15:45:56;7.30;1.00
20839;DHT22;10580;51.092;6.828;2024-01-27T15:48:22;7.20;1.00